Los Molinos, California
Current Conditions -  °F | °C
As of 4:54 PM on Tuesday 27 Jan 2015 (Local Time) from KRBL Reporting Station
Broken Clouds Broken Clouds  
Wind Chill: 56°   Ceiling: 12000
Heat Index: 56°   Visibility: 7mi
Dew Point: 48°   Wind: 0mph
Humidity: 75%   Direction: NA
Pressure: 30.24"   Gusts: NA
Location:  40.02°N, 122.1°W
Report Text: KRBL 280054Z AUTO 00000KT 7SM BKN120 13/09 A3024 RMK AO2 SLP240 T01330089
Loading
Personal Weather Stations






























Interactive Weather Map New forecast layout! Learn more

10-Day Weather Forecast

Advertisements
Track Severe Weather on mobile